createdAt,value
2023-03-23T00:00:05.272Z,8.93
2023-03-23T00:00:35.237Z,8.93
2023-03-23T00:00:52.514Z,8.93
2023-03-23T00:01:24.388Z,8.93
2023-03-23T00:01:57.452Z,8.93
2023-03-23T00:02:28.741Z,8.93
2023-03-23T00:03:01.245Z,8.93
2023-03-23T00:03:32.415Z,8.93
2023-03-23T00:04:05.227Z,8.93
2023-03-23T00:04:34.266Z,8.93
2023-03-23T00:04:52.401Z,8.93
2023-03-23T00:05:24.728Z,8.93
2023-03-23T00:05:41.611Z,8.74
2023-03-23T00:06:13.040Z,8.74
2023-03-23T00:06:34.275Z,8.74
2023-03-23T00:07:00.448Z,8.74
2023-03-23T00:07:32.408Z,8.85
2023-03-23T00:08:04.395Z,8.85
2023-03-23T00:08:35.331Z,8.85
2023-03-23T00:08:52.343Z,8.85
2023-03-23T00:09:25.243Z,8.85
2023-03-23T00:09:42.346Z,8.85
2023-03-23T00:10:12.597Z,8.85
2023-03-23T00:10:35.338Z,8.85
2023-03-23T00:11:00.698Z,8.85
2023-03-23T00:11:33.168Z,8.85
2023-03-23T00:12:04.374Z,8.85
2023-03-23T00:12:36.037Z,8.85
2023-03-23T00:12:52.559Z,8.85
2023-03-23T00:13:24.463Z,8.74
2023-03-23T00:13:42.204Z,8.74
2023-03-23T00:14:12.404Z,8.74
2023-03-23T00:14:35.826Z,8.85
2023-03-23T00:15:00.791Z,8.85
2023-03-23T00:15:32.379Z,8.85
2023-03-23T00:16:05.274Z,8.85
2023-03-23T00:16:35.281Z,8.85
2023-03-23T00:16:52.397Z,8.85
2023-03-23T00:17:24.523Z,8.85
2023-03-23T00:17:41.463Z,8.85
2023-03-23T00:18:13.093Z,8.85
2023-03-23T00:18:35.319Z,8.85
2023-03-23T00:19:00.487Z,8.85
2023-03-23T00:19:32.433Z,8.85
2023-03-23T00:20:04.535Z,8.85
2023-03-23T00:20:35.329Z,8.85
2023-03-23T00:20:52.592Z,8.85
2023-03-23T00:21:25.188Z,8.85
2023-03-23T00:21:42.172Z,8.85
2023-03-23T00:22:12.468Z,8.85
2023-03-23T00:22:35.331Z,9.03
2023-03-23T00:23:00.425Z,9.03
2023-03-23T00:23:33.140Z,9.03
2023-03-23T00:24:04.413Z,9.03
2023-03-23T00:24:36.943Z,9.03
2023-03-23T00:25:08.819Z,9.03
2023-03-23T00:25:35.342Z,9.03
2023-03-23T00:25:56.660Z,9.03
2023-03-23T00:26:28.806Z,9.11
2023-03-23T00:27:01.143Z,9.11
2023-03-23T00:27:32.362Z,9.11
2023-03-23T00:28:05.128Z,9.11
2023-03-23T00:28:35.346Z,9.11
2023-03-23T00:28:52.402Z,9.06
2023-03-23T00:29:24.544Z,9.06
2023-03-23T00:29:41.582Z,9.06
2023-03-23T00:30:13.684Z,9.06
2023-03-23T00:30:35.402Z,9.06
2023-03-23T00:31:00.417Z,9.06
2023-03-23T00:31:32.416Z,9.06
2023-03-23T00:32:04.346Z,9.14
2023-03-23T00:32:35.301Z,9.14
2023-03-23T00:32:52.337Z,9.14
2023-03-23T00:33:25.269Z,9.14
2023-03-23T00:33:42.250Z,9.14
2023-03-23T00:34:12.430Z,8.95
2023-03-23T00:34:35.666Z,9.14
2023-03-23T00:35:00.544Z,8.95
2023-03-23T00:35:33.091Z,8.95
2023-03-23T00:36:04.419Z,9.14
2023-03-23T00:36:35.966Z,9.14
2023-03-23T00:36:52.465Z,9.14
2023-03-23T00:37:24.494Z,9.14
2023-03-23T00:37:42.388Z,9.14
2023-03-23T00:38:12.443Z,9.14
2023-03-23T00:38:35.262Z,9.14
2023-03-23T00:39:00.426Z,9.14
2023-03-23T00:39:32.349Z,8.95
2023-03-23T00:40:05.290Z,8.95
2023-03-23T00:40:35.287Z,8.95
2023-03-23T00:40:52.563Z,8.95
2023-03-23T00:41:24.552Z,8.95
2023-03-23T00:41:41.456Z,8.95
2023-03-23T00:42:13.101Z,8.95
2023-03-23T00:42:35.211Z,8.95
2023-03-23T00:43:00.478Z,8.95
2023-03-23T00:43:32.335Z,8.95
2023-03-23T00:44:04.631Z,8.95
2023-03-23T00:44:35.417Z,8.95
2023-03-23T00:44:54.281Z,9.06
2023-03-23T00:45:25.572Z,9.06
2023-03-23T00:45:42.632Z,9.06
2023-03-23T00:46:12.360Z,9.06
2023-03-23T00:46:35.424Z,9.06
2023-03-23T00:47:00.395Z,9.06
2023-03-23T00:47:33.300Z,9.06
2023-03-23T00:48:04.353Z,9.06
2023-03-23T00:48:37.009Z,9.06
2023-03-23T00:49:08.388Z,9.06
2023-03-23T00:49:35.323Z,9.06
2023-03-23T00:49:56.471Z,9.06
2023-03-23T00:50:33.835Z,9.06
2023-03-23T00:51:01.185Z,9.06
2023-03-23T00:51:32.382Z,9.06
2023-03-23T00:52:05.043Z,9.06
2023-03-23T00:52:35.612Z,9.06
2023-03-23T00:52:52.489Z,9.06
2023-03-23T00:53:24.517Z,9.06
2023-03-23T00:53:41.456Z,9.06
2023-03-23T00:54:13.051Z,9.06
2023-03-23T00:54:35.621Z,9.06
2023-03-23T00:55:00.594Z,9.06
2023-03-23T00:55:32.353Z,9.06
2023-03-23T00:56:04.384Z,9.06
2023-03-23T00:56:35.355Z,9.06
2023-03-23T00:56:52.377Z,9.06
2023-03-23T00:57:25.381Z,8.95
2023-03-23T00:57:42.294Z,8.95
2023-03-23T00:58:12.348Z,9.14
2023-03-23T00:58:35.568Z,8.95
2023-03-23T00:59:00.442Z,9.14
2023-03-23T00:59:33.013Z,9.14
2023-03-23T01:00:05.536Z,9.14
2023-03-23T01:00:36.013Z,9.14
2023-03-23T01:01:08.565Z,9.14
2023-03-23T01:01:35.441Z,9.14
2023-03-23T01:01:56.447Z,9.14
2023-03-23T01:02:28.550Z,9.14
2023-03-23T01:03:01.105Z,9.14
2023-03-23T01:03:32.461Z,9.20
2023-03-23T01:04:05.115Z,9.20
2023-03-23T01:04:35.316Z,9.20
2023-03-23T01:04:52.598Z,9.20
2023-03-23T01:05:24.686Z,9.20
2023-03-23T01:05:41.745Z,9.38
2023-03-23T01:06:13.188Z,9.38
2023-03-23T01:06:35.307Z,9.26
2023-03-23T01:07:00.644Z,9.26
2023-03-23T01:07:32.340Z,9.26
2023-03-23T01:08:04.386Z,9.16
2023-03-23T01:08:35.465Z,9.16
2023-03-23T01:08:52.579Z,9.34
2023-03-23T01:09:25.261Z,9.29
2023-03-23T01:09:42.197Z,9.29
2023-03-23T01:10:12.535Z,9.29
2023-03-23T01:10:35.370Z,9.29
2023-03-23T01:11:00.401Z,9.29
2023-03-23T01:11:33.001Z,9.29
2023-03-23T01:12:04.431Z,9.29
2023-03-23T01:12:36.550Z,9.29
2023-03-23T01:13:08.587Z,9.18
2023-03-23T01:13:35.440Z,9.18
2023-03-23T01:13:56.816Z,9.35
2023-03-23T01:14:28.738Z,9.35
2023-03-23T01:15:01.621Z,9.35
2023-03-23T01:15:32.453Z,9.35
2023-03-23T01:16:05.142Z,9.35
2023-03-23T01:16:35.713Z,9.35
2023-03-23T01:17:07.836Z,9.35
2023-03-23T01:17:25.062Z,9.24
2023-03-23T01:17:42.181Z,9.24
2023-03-23T01:18:12.441Z,9.24
2023-03-23T01:18:35.419Z,9.24
2023-03-23T01:19:00.663Z,9.24
2023-03-23T01:19:33.084Z,9.24
2023-03-23T01:20:04.561Z,9.24
2023-03-23T01:20:36.253Z,9.24
2023-03-23T01:21:08.431Z,9.24
2023-03-23T01:21:35.614Z,9.41
2023-03-23T01:21:56.484Z,9.41
2023-03-23T01:22:28.646Z,9.41
2023-03-23T01:23:01.262Z,9.41
2023-03-23T01:23:32.413Z,9.30
2023-03-23T01:24:05.200Z,9.30
2023-03-23T01:24:35.419Z,9.30
2023-03-23T01:24:52.429Z,9.30
2023-03-23T01:25:24.796Z,9.30
2023-03-23T01:25:41.712Z,9.30
2023-03-23T01:26:13.104Z,9.30
2023-03-23T01:26:35.785Z,9.30
2023-03-23T01:27:00.564Z,9.30
2023-03-23T01:27:32.448Z,9.19
2023-03-23T01:28:04.451Z,9.19
2023-03-23T01:28:35.470Z,9.19
2023-03-23T01:29:08.536Z,9.19
2023-03-23T01:29:35.684Z,9.19
2023-03-23T01:29:56.455Z,9.19
2023-03-23T01:30:30.028Z,9.19
2023-03-23T01:31:00.493Z,9.19
2023-03-23T01:31:33.036Z,9.19
2023-03-23T01:32:04.358Z,9.19
2023-03-23T01:32:36.149Z,9.19
2023-03-23T01:33:08.392Z,9.19
2023-03-23T01:33:35.349Z,9.19
2023-03-23T01:33:56.384Z,9.19
2023-03-23T01:34:28.336Z,9.19
2023-03-23T01:35:01.298Z,9.19
2023-03-23T01:35:32.406Z,9.19
2023-03-23T01:36:05.259Z,9.19
2023-03-23T01:36:35.958Z,9.19
2023-03-23T01:36:52.162Z,9.19
2023-03-23T01:37:24.399Z,9.19
2023-03-23T01:37:41.468Z,9.19
2023-03-23T01:38:13.290Z,9.19
2023-03-23T01:38:35.350Z,9.19
2023-03-23T01:39:00.450Z,9.19
2023-03-23T01:39:32.343Z,9.19
2023-03-23T01:40:05.614Z,9.02
2023-03-23T01:40:35.402Z,9.02
2023-03-23T01:40:52.537Z,9.02
2023-03-23T01:41:24.462Z,8.85
2023-03-23T01:41:41.469Z,8.85
2023-03-23T01:42:13.099Z,8.96
2023-03-23T01:42:35.378Z,8.96
2023-03-23T01:43:00.502Z,8.96
2023-03-23T01:43:32.398Z,8.96
2023-03-23T01:44:04.475Z,8.96
2023-03-23T01:44:35.333Z,8.96
2023-03-23T01:45:08.670Z,9.07
2023-03-23T01:45:35.436Z,9.07
2023-03-23T01:45:56.571Z,9.07
2023-03-23T01:46:29.366Z,9.07
2023-03-23T01:47:00.475Z,9.07
2023-03-23T01:47:33.046Z,8.89
2023-03-23T01:48:04.350Z,8.89
2023-03-23T01:48:36.275Z,8.89
2023-03-23T01:49:08.336Z,8.89
2023-03-23T01:49:35.952Z,8.89
2023-03-23T01:49:56.398Z,9.00
2023-03-23T01:50:28.753Z,9.00
2023-03-23T01:51:01.179Z,9.00
2023-03-23T01:51:41.857Z,9.00
2023-03-23T01:52:05.296Z,9.00
2023-03-23T01:52:35.299Z,9.00
2023-03-23T01:53:09.686Z,9.00
2023-03-23T01:53:35.330Z,9.00
2023-03-23T01:53:56.461Z,9.00
2023-03-23T01:54:28.395Z,9.00
2023-03-23T01:55:00.657Z,9.00
2023-03-23T01:55:32.324Z,9.00
2023-03-23T01:56:04.283Z,9.00
2023-03-23T01:56:35.823Z,9.00
2023-03-23T01:56:52.186Z,9.00
2023-03-23T01:57:25.245Z,9.00
2023-03-23T01:57:42.184Z,9.00
2023-03-23T01:58:12.336Z,9.00
2023-03-23T01:58:35.328Z,9.00
2023-03-23T01:59:00.571Z,9.00
2023-03-23T01:59:33.031Z,9.00
2023-03-23T02:00:04.969Z,9.00
2023-03-23T02:00:36.074Z,9.00
2023-03-23T02:01:08.372Z,9.00
2023-03-23T02:01:35.445Z,9.00
2023-03-23T02:01:56.411Z,9.00
2023-03-23T02:02:28.308Z,9.00
2023-03-23T02:03:01.116Z,9.00
2023-03-23T02:03:32.406Z,9.00
2023-03-23T02:04:05.018Z,9.00
2023-03-23T02:04:35.318Z,9.00
2023-03-23T02:05:09.280Z,9.00
2023-03-23T02:05:35.296Z,9.00
2023-03-23T02:05:56.561Z,9.00
2023-03-23T02:06:28.553Z,9.00
2023-03-23T02:07:00.436Z,9.00
2023-03-23T02:07:32.449Z,9.00
2023-03-23T02:08:04.380Z,8.82
2023-03-23T02:08:35.371Z,8.82
2023-03-23T02:09:10.394Z,8.82
2023-03-23T02:09:35.390Z,8.82
2023-03-23T02:09:56.464Z,8.82
2023-03-23T02:10:29.553Z,8.82
2023-03-23T02:11:00.508Z,8.82
2023-03-23T02:11:33.032Z,8.93
2023-03-23T02:12:04.319Z,8.93
2023-03-23T02:12:36.145Z,8.93
2023-03-23T02:13:08.374Z,8.93
2023-03-23T02:13:35.323Z,8.93
2023-03-23T02:13:56.594Z,8.75
2023-03-23T02:14:28.370Z,8.75
2023-03-23T02:15:01.568Z,8.75
2023-03-23T02:15:34.271Z,8.75
2023-03-23T02:16:05.164Z,8.75
2023-03-23T02:16:35.521Z,8.80
2023-03-23T02:17:09.141Z,8.80
2023-03-23T02:17:35.333Z,8.80
2023-03-23T02:17:56.431Z,8.80
2023-03-23T02:18:28.401Z,8.80
2023-03-23T02:19:00.554Z,8.80
2023-03-23T02:19:32.332Z,8.80
2023-03-23T02:20:04.530Z,8.80
2023-03-23T02:20:35.342Z,8.80
2023-03-23T02:21:08.397Z,8.97
2023-03-23T02:21:35.844Z,8.97
2023-03-23T02:21:56.440Z,8.97
2023-03-23T02:22:29.226Z,8.97
2023-03-23T02:23:00.509Z,8.97
2023-03-23T02:23:33.023Z,8.97
2023-03-23T02:24:04.307Z,8.97
2023-03-23T02:24:36.195Z,8.97
2023-03-23T02:25:08.575Z,8.97
2023-03-23T02:25:35.377Z,8.97
2023-03-23T02:25:56.585Z,8.97
2023-03-23T02:26:28.364Z,8.97
2023-03-23T02:27:01.173Z,8.97
2023-03-23T02:27:32.341Z,8.97
2023-03-23T02:28:05.034Z,8.97
2023-03-23T02:28:35.259Z,8.97
2023-03-23T02:28:52.388Z,8.97
2023-03-23T02:29:24.479Z,8.97
2023-03-23T02:29:42.373Z,8.97
2023-03-23T02:30:13.445Z,8.97
2023-03-23T02:30:35.776Z,8.97
2023-03-23T02:31:00.525Z,8.97
2023-03-23T02:31:32.425Z,8.97
2023-03-23T02:32:04.407Z,8.97
2023-03-23T02:32:35.321Z,8.97
2023-03-23T02:33:08.404Z,9.08
2023-03-23T02:33:35.396Z,9.08
2023-03-23T02:33:56.562Z,9.08
2023-03-23T02:34:29.170Z,9.08
2023-03-23T02:35:00.631Z,9.08
2023-03-23T02:35:33.111Z,9.08
2023-03-23T02:36:04.358Z,9.08
2023-03-23T02:36:36.037Z,9.08
2023-03-23T02:37:08.354Z,9.08
2023-03-23T02:37:35.314Z,9.08
2023-03-23T02:37:56.373Z,9.08
2023-03-23T02:38:28.397Z,9.08
2023-03-23T02:39:00.429Z,9.08
2023-03-23T02:39:32.398Z,9.08
2023-03-23T02:40:05.347Z,9.08
2023-03-23T02:40:35.360Z,9.08
2023-03-23T02:41:09.077Z,9.08
2023-03-23T02:41:35.817Z,9.08
2023-03-23T02:41:56.458Z,9.08
2023-03-23T02:42:28.345Z,9.08
2023-03-23T02:43:00.562Z,9.08
2023-03-23T02:43:35.049Z,9.08
2023-03-23T02:44:04.516Z,9.08
2023-03-23T02:44:35.843Z,9.08
2023-03-23T02:44:52.370Z,9.08
2023-03-23T02:45:25.461Z,9.08
2023-03-23T02:45:42.737Z,9.08
2023-03-23T02:46:12.317Z,9.08
2023-03-23T02:46:35.319Z,9.08
2023-03-23T02:47:00.447Z,9.08
2023-03-23T02:47:32.985Z,9.08
2023-03-23T02:48:04.623Z,9.08
2023-03-23T02:48:36.167Z,9.08
2023-03-23T02:49:08.339Z,9.08
2023-03-23T02:49:35.334Z,9.08
2023-03-23T02:49:56.307Z,9.08
2023-03-23T02:50:28.556Z,9.08
2023-03-23T02:51:01.146Z,9.08
2023-03-23T02:51:32.337Z,9.08
2023-03-23T02:52:05.040Z,9.08
2023-03-23T02:52:35.506Z,9.08
2023-03-23T02:52:52.554Z,9.08
2023-03-23T02:53:24.463Z,9.08
2023-03-23T02:53:41.499Z,9.08
2023-03-23T02:54:13.042Z,9.08
2023-03-23T02:54:35.616Z,9.08
2023-03-23T02:55:00.726Z,9.08
2023-03-23T02:55:32.401Z,9.08
2023-03-23T02:56:04.380Z,9.08
2023-03-23T02:56:35.349Z,9.08
2023-03-23T02:57:08.363Z,9.08
2023-03-23T02:57:40.515Z,9.08
2023-03-23T02:57:56.386Z,9.08
2023-03-23T02:58:29.296Z,9.08
2023-03-23T02:59:00.350Z,9.08
2023-03-23T02:59:33.038Z,9.08
2023-03-23T03:00:04.810Z,9.08
2023-03-23T03:00:36.225Z,9.08
2023-03-23T03:01:08.308Z,9.08
2023-03-23T03:01:35.693Z,9.08
2023-03-23T03:01:56.383Z,9.08
2023-03-23T03:02:28.347Z,9.08
2023-03-23T03:03:01.201Z,9.08
2023-03-23T03:03:32.372Z,9.08
2023-03-23T03:04:05.123Z,9.08
2023-03-23T03:04:35.304Z,9.08
2023-03-23T03:04:52.539Z,9.08
2023-03-23T03:05:24.662Z,9.08
2023-03-23T03:05:41.539Z,9.08
2023-03-23T03:06:13.165Z,9.08
2023-03-23T03:06:35.271Z,9.08
2023-03-23T03:07:00.439Z,9.08
2023-03-23T03:07:32.424Z,9.08
2023-03-23T03:08:04.292Z,9.08
2023-03-23T03:08:35.444Z,9.08
2023-03-23T03:09:08.276Z,9.08
2023-03-23T03:09:35.358Z,9.08
2023-03-23T03:09:56.450Z,9.08
2023-03-23T03:10:30.351Z,9.08
2023-03-23T03:11:00.503Z,9.08
2023-03-23T03:11:33.092Z,9.08
2023-03-23T03:12:04.300Z,9.08
2023-03-23T03:12:36.060Z,9.08
2023-03-23T03:13:08.392Z,9.08
2023-03-23T03:13:35.340Z,9.08
2023-03-23T03:13:56.365Z,9.08
2023-03-23T03:14:28.391Z,9.08
2023-03-23T03:15:01.397Z,8.91
2023-03-23T03:15:32.318Z,8.91
2023-03-23T03:16:05.108Z,8.91
2023-03-23T03:16:35.299Z,8.91
2023-03-23T03:17:09.606Z,8.91
2023-03-23T03:17:35.371Z,8.91
2023-03-23T03:17:56.411Z,8.91
2023-03-23T03:18:28.425Z,8.91
2023-03-23T03:19:00.492Z,8.91
2023-03-23T03:19:32.288Z,8.91
2023-03-23T03:20:04.493Z,8.91
2023-03-23T03:20:35.722Z,8.91
2023-03-23T03:21:07.880Z,8.91
2023-03-23T03:21:25.104Z,8.91
2023-03-23T03:21:42.122Z,8.91
2023-03-23T03:22:12.506Z,8.91
2023-03-23T03:22:35.792Z,8.91
2023-03-23T03:23:00.610Z,8.91
2023-03-23T03:23:33.080Z,8.91
2023-03-23T03:24:04.336Z,8.91
2023-03-23T03:24:36.267Z,8.91
2023-03-23T03:25:17.986Z,8.91
2023-03-23T03:25:36.444Z,8.91
2023-03-23T03:25:56.519Z,8.91
2023-03-23T03:26:28.413Z,8.91
2023-03-23T03:27:01.093Z,8.91
2023-03-23T03:27:32.365Z,8.91
2023-03-23T03:28:05.056Z,8.91
2023-03-23T03:28:35.298Z,8.91
2023-03-23T03:29:09.055Z,8.91
2023-03-23T03:29:36.147Z,8.91
2023-03-23T03:29:56.411Z,8.91
2023-03-23T03:30:28.590Z,8.91
2023-03-23T03:31:00.421Z,8.91
2023-03-23T03:31:32.374Z,8.91
2023-03-23T03:32:04.317Z,8.91
2023-03-23T03:32:35.449Z,8.91
2023-03-23T03:33:08.335Z,8.91
2023-03-23T03:33:35.900Z,8.91
2023-03-23T03:33:56.493Z,8.91
2023-03-23T03:34:29.267Z,8.91
2023-03-23T03:35:00.684Z,8.91
2023-03-23T03:35:33.098Z,8.91
2023-03-23T03:36:04.391Z,8.91
2023-03-23T03:36:36.283Z,8.91
2023-03-23T03:37:08.342Z,8.91
2023-03-23T03:37:35.301Z,8.91
2023-03-23T03:37:56.389Z,8.91
2023-03-23T03:38:28.385Z,8.91
2023-03-23T03:39:00.386Z,8.91
2023-03-23T03:39:32.356Z,8.91
2023-03-23T03:40:05.605Z,8.91
2023-03-23T03:40:35.317Z,8.91
2023-03-23T03:41:08.994Z,8.91
2023-03-23T03:41:35.303Z,8.91
2023-03-23T03:41:56.406Z,8.91
2023-03-23T03:42:28.340Z,8.91
2023-03-23T03:43:00.386Z,8.91
2023-03-23T03:43:32.379Z,8.91
2023-03-23T03:44:04.482Z,8.91
2023-03-23T03:44:35.329Z,8.91
2023-03-23T03:45:08.661Z,8.91
2023-03-23T03:45:35.318Z,8.91
2023-03-23T03:45:56.581Z,8.91
2023-03-23T03:46:29.325Z,8.91
2023-03-23T03:47:00.448Z,8.91
2023-03-23T03:47:33.215Z,8.91
2023-03-23T03:48:04.278Z,8.91
2023-03-23T03:48:37.235Z,8.91
2023-03-23T03:49:08.297Z,8.91
2023-03-23T03:49:35.747Z,8.91
2023-03-23T03:49:56.461Z,8.91
2023-03-23T03:50:28.773Z,8.91
2023-03-23T03:51:01.287Z,8.91
2023-03-23T03:51:32.344Z,8.91
2023-03-23T03:52:05.176Z,8.91
2023-03-23T03:52:35.312Z,8.91
2023-03-23T03:53:09.101Z,8.91
2023-03-23T03:53:35.370Z,8.91
2023-03-23T03:53:56.439Z,8.91
2023-03-23T03:54:28.285Z,8.91
2023-03-23T03:55:00.632Z,8.91
2023-03-23T03:55:32.372Z,8.91
2023-03-23T03:56:04.500Z,8.91
2023-03-23T03:56:35.332Z,8.91
2023-03-23T03:57:08.353Z,8.91
2023-03-23T03:57:35.315Z,8.91
2023-03-23T03:57:56.495Z,8.91
2023-03-23T03:58:29.642Z,8.73
2023-03-23T03:59:00.373Z,8.73
2023-03-23T03:59:35.371Z,8.73
2023-03-23T04:00:04.744Z,8.73
2023-03-23T04:00:36.588Z,8.73
2023-03-23T04:01:08.404Z,8.73
2023-03-23T04:01:35.266Z,8.73
2023-03-23T04:01:56.349Z,8.73
2023-03-23T04:02:28.391Z,8.73
2023-03-23T04:03:01.213Z,8.73
2023-03-23T04:03:32.301Z,8.73
2023-03-23T04:04:04.984Z,8.73
2023-03-23T04:04:35.664Z,8.73
2023-03-23T04:05:07.962Z,8.73
2023-03-23T04:05:25.185Z,8.73
2023-03-23T04:05:42.499Z,8.73
2023-03-23T04:06:12.359Z,8.73
2023-03-23T04:06:35.356Z,8.73
2023-03-23T04:07:00.727Z,8.73
2023-03-23T04:07:33.237Z,8.73
2023-03-23T04:08:09.302Z,8.73
2023-03-23T04:08:36.461Z,8.73
2023-03-23T04:09:09.084Z,8.73
2023-03-23T04:09:35.351Z,8.73
2023-03-23T04:09:56.601Z,8.73
2023-03-23T04:10:32.707Z,8.73
2023-03-23T04:11:01.175Z,8.91
2023-03-23T04:11:33.236Z,8.80
2023-03-23T04:12:04.971Z,8.80
2023-03-23T04:12:35.348Z,8.62
2023-03-23T04:13:09.042Z,8.73
2023-03-23T04:13:36.284Z,8.73
2023-03-23T04:13:56.595Z,8.73
2023-03-23T04:14:28.373Z,8.73
2023-03-23T04:15:06.252Z,8.73
2023-03-23T04:15:32.355Z,8.73
2023-03-23T04:16:07.105Z,8.73
2023-03-23T04:16:35.337Z,8.73
2023-03-23T04:17:08.343Z,8.73
2023-03-23T04:17:35.381Z,8.73
2023-03-23T04:18:12.309Z,8.73
2023-03-23T04:18:35.491Z,8.73
2023-03-23T04:19:00.429Z,8.73
2023-03-23T04:19:33.033Z,8.73
2023-03-23T04:20:04.513Z,8.73
2023-03-23T04:20:36.169Z,8.73
2023-03-23T04:21:08.345Z,8.73
2023-03-23T04:21:35.289Z,8.73
2023-03-23T04:21:56.405Z,8.73
2023-03-23T04:22:28.361Z,8.91
2023-03-23T04:23:01.214Z,8.91
2023-03-23T04:23:32.279Z,8.80
2023-03-23T04:24:05.140Z,8.80
2023-03-23T04:24:56.225Z,8.80
2023-03-23T04:25:09.353Z,8.80
2023-03-23T04:25:35.512Z,8.80
2023-03-23T04:25:56.593Z,8.80
2023-03-23T04:26:28.472Z,8.80
2023-03-23T04:27:00.393Z,8.80
2023-03-23T04:27:32.270Z,8.80
2023-03-23T04:28:04.283Z,8.80
2023-03-23T04:28:35.262Z,8.80
2023-03-23T04:29:08.437Z,8.80
2023-03-23T04:29:35.242Z,8.80
2023-03-23T04:29:56.496Z,8.80
2023-03-23T04:30:29.763Z,8.80
2023-03-23T04:31:00.384Z,8.80
2023-03-23T04:31:33.101Z,8.80
2023-03-23T04:32:04.269Z,8.80
2023-03-23T04:32:36.131Z,8.80
2023-03-23T04:33:08.309Z,8.80
2023-03-23T04:33:59.845Z,8.80
2023-03-23T04:34:12.376Z,8.80
2023-03-23T04:34:35.289Z,8.80
2023-03-23T04:35:12.911Z,8.80
2023-03-23T04:35:32.356Z,8.80
2023-03-23T04:36:05.080Z,8.80
2023-03-23T04:36:56.516Z,8.80
2023-03-23T04:37:09.135Z,8.80
2023-03-23T04:37:35.292Z,8.80
2023-03-23T04:37:56.433Z,8.80
2023-03-23T04:38:28.434Z,8.80
2023-03-23T04:39:00.413Z,8.80
2023-03-23T04:39:32.263Z,8.80
2023-03-23T04:40:05.284Z,8.80
2023-03-23T04:40:35.314Z,8.80
2023-03-23T04:41:09.198Z,8.80
2023-03-23T04:41:35.308Z,8.80
2023-03-23T04:41:56.478Z,8.80
2023-03-23T04:42:28.446Z,8.75
2023-03-23T04:43:00.464Z,8.75
2023-03-23T04:43:32.318Z,8.75
2023-03-23T04:44:04.452Z,8.75
2023-03-23T04:44:35.334Z,8.75
2023-03-23T04:45:25.513Z,8.75
2023-03-23T04:45:42.705Z,8.75
2023-03-23T04:46:12.330Z,8.75
2023-03-23T04:46:35.289Z,8.75
2023-03-23T04:47:00.420Z,8.75
2023-03-23T04:47:33.080Z,8.75
2023-03-23T04:48:04.268Z,8.75
2023-03-23T04:48:36.482Z,8.75
2023-03-23T04:49:08.326Z,8.75
2023-03-23T04:49:35.663Z,8.75
2023-03-23T04:49:56.377Z,8.75
2023-03-23T04:50:28.514Z,8.75
2023-03-23T04:51:01.039Z,8.75
2023-03-23T04:51:32.281Z,8.75
2023-03-23T04:52:05.063Z,8.75
2023-03-23T04:52:35.660Z,8.75
2023-03-23T04:52:52.099Z,8.65
2023-03-23T04:53:24.360Z,8.65
2023-03-23T04:53:41.527Z,8.65
2023-03-23T04:54:13.145Z,8.65
2023-03-23T04:54:35.243Z,8.65
2023-03-23T04:55:00.725Z,8.65
2023-03-23T04:55:32.286Z,8.65
2023-03-23T04:56:04.358Z,8.65
2023-03-23T04:56:35.432Z,8.65
2023-03-23T04:56:52.319Z,8.65
2023-03-23T04:57:25.000Z,8.65
2023-03-23T04:57:42.104Z,8.65
2023-03-23T04:58:12.237Z,8.65
2023-03-23T04:58:35.295Z,8.65
2023-03-23T04:59:00.476Z,8.65
2023-03-23T04:59:33.110Z,8.65
2023-03-23T05:00:04.712Z,8.65
2023-03-23T05:00:36.248Z,8.65
2023-03-23T05:01:09.101Z,8.65
2023-03-23T05:01:35.296Z,8.75
2023-03-23T05:02:14.703Z,8.75
2023-03-23T05:02:29.383Z,8.75
2023-03-23T05:03:01.029Z,8.75
2023-03-23T05:03:32.352Z,8.75
2023-03-23T05:04:05.021Z,8.65
2023-03-23T05:04:35.369Z,8.65
2023-03-23T05:04:52.363Z,8.65
2023-03-23T05:05:24.561Z,8.65
2023-03-23T05:05:41.581Z,8.65
2023-03-23T05:06:13.008Z,8.65
2023-03-23T05:06:35.282Z,8.65
2023-03-23T05:07:00.628Z,8.65
2023-03-23T05:07:32.274Z,8.65
2023-03-23T05:08:04.256Z,8.65
2023-03-23T05:08:35.285Z,8.65
2023-03-23T05:09:08.363Z,8.65
2023-03-23T05:09:35.297Z,8.65
2023-03-23T05:09:56.444Z,8.65
2023-03-23T05:10:30.267Z,8.54
2023-03-23T05:11:00.731Z,8.54
2023-03-23T05:11:33.072Z,8.54
2023-03-23T05:12:04.365Z,8.54
2023-03-23T05:12:36.017Z,8.54
2023-03-23T05:13:08.288Z,8.54
2023-03-23T05:13:35.315Z,8.54
2023-03-23T05:13:56.391Z,8.54
2023-03-23T05:14:28.432Z,8.54
2023-03-23T05:15:01.527Z,8.54
2023-03-23T05:15:32.309Z,8.54
2023-03-23T05:16:05.224Z,8.54
2023-03-23T05:16:35.255Z,8.54
2023-03-23T05:16:52.108Z,8.54
2023-03-23T05:17:24.458Z,8.54
2023-03-23T05:17:41.502Z,8.54
2023-03-23T05:18:13.111Z,8.54
2023-03-23T05:18:35.303Z,8.54
2023-03-23T05:19:00.485Z,8.54
2023-03-23T05:19:32.388Z,8.54
2023-03-23T05:20:04.487Z,8.54
2023-03-23T05:20:35.312Z,8.54
2023-03-23T05:21:08.371Z,8.36
2023-03-23T05:21:36.160Z,8.36
2023-03-23T05:21:56.455Z,8.36
2023-03-23T05:22:29.206Z,8.36
2023-03-23T05:23:00.356Z,8.36
2023-03-23T05:23:33.103Z,8.36
2023-03-23T05:24:04.528Z,8.36
2023-03-23T05:24:36.536Z,8.36
2023-03-23T05:25:08.501Z,8.36
2023-03-23T05:25:35.958Z,8.36
2023-03-23T05:25:56.604Z,8.36
2023-03-23T05:26:28.387Z,8.36
2023-03-23T05:27:01.363Z,8.36
2023-03-23T05:27:32.245Z,8.36
2023-03-23T05:28:06.021Z,8.36
2023-03-23T05:28:35.593Z,8.36
2023-03-23T05:28:52.098Z,8.36
2023-03-23T05:29:24.448Z,8.36
2023-03-23T05:29:41.454Z,8.36
2023-03-23T05:30:13.351Z,8.36
2023-03-23T05:30:35.337Z,8.36
2023-03-23T05:31:00.494Z,8.36
2023-03-23T05:31:32.324Z,8.24
2023-03-23T05:32:04.305Z,8.24
2023-03-23T05:32:35.550Z,8.24
2023-03-23T05:33:07.796Z,8.24
2023-03-23T05:33:24.955Z,8.24
2023-03-23T05:33:42.138Z,8.24
2023-03-23T05:34:12.400Z,8.24
2023-03-23T05:34:35.409Z,8.24
2023-03-23T05:35:00.764Z,8.24
2023-03-23T05:35:33.166Z,8.24
2023-03-23T05:36:04.378Z,8.36
2023-03-23T05:36:36.447Z,8.36
2023-03-23T05:37:08.568Z,8.36
2023-03-23T05:37:35.394Z,8.36
2023-03-23T05:37:56.979Z,8.36
2023-03-23T05:38:28.633Z,8.36
2023-03-23T05:39:00.567Z,8.36
2023-03-23T05:39:32.777Z,8.24
2023-03-23T05:40:05.472Z,8.24
2023-03-23T05:40:35.663Z,8.24
2023-03-23T05:41:07.907Z,8.24
2023-03-23T05:41:25.246Z,8.24
2023-03-23T05:41:42.230Z,8.24
2023-03-23T05:42:12.569Z,8.24
2023-03-23T05:42:35.489Z,8.24
2023-03-23T05:43:00.539Z,8.24
2023-03-23T05:43:33.818Z,8.24
2023-03-23T05:44:04.648Z,8.24
2023-03-23T05:44:36.467Z,8.24
2023-03-23T05:45:08.800Z,8.24
2023-03-23T05:45:35.706Z,8.36
2023-03-23T05:45:56.794Z,8.36
2023-03-23T05:46:28.522Z,8.36
2023-03-23T05:47:01.244Z,8.36
2023-03-23T05:47:32.664Z,8.36
2023-03-23T05:48:05.125Z,8.36
2023-03-23T05:48:35.401Z,8.36
2023-03-23T05:49:10.025Z,8.36
2023-03-23T05:49:35.483Z,8.36
2023-03-23T05:49:56.771Z,8.36
2023-03-23T05:50:28.722Z,8.36
2023-03-23T05:51:00.499Z,8.36
2023-03-23T05:51:32.744Z,8.18
2023-03-23T05:52:04.553Z,8.18
2023-03-23T05:52:35.504Z,8.18
2023-03-23T05:52:52.623Z,8.18
2023-03-23T05:53:25.249Z,8.28
2023-03-23T05:53:42.267Z,8.28
2023-03-23T05:54:12.428Z,8.28
2023-03-23T05:54:35.382Z,8.28
2023-03-23T05:55:00.955Z,8.28
2023-03-23T05:55:33.282Z,8.28
2023-03-23T05:56:04.641Z,8.28
2023-03-23T05:56:36.500Z,8.28
2023-03-23T05:57:08.392Z,8.28
2023-03-23T05:57:36.018Z,8.28
2023-03-23T05:57:56.741Z,8.47
2023-03-23T05:58:28.795Z,8.28
2023-03-23T05:59:02.480Z,8.28
2023-03-23T05:59:32.577Z,8.28
2023-03-23T06:00:06.487Z,8.28
2023-03-23T06:00:35.579Z,8.28
2023-03-23T06:01:09.290Z,8.28
2023-03-23T06:01:35.958Z,8.28
2023-03-23T06:01:56.695Z,8.18
2023-03-23T06:02:28.482Z,8.18
2023-03-23T06:03:00.633Z,8.18
2023-03-23T06:03:32.565Z,8.18
2023-03-23T06:04:04.620Z,8.18
2023-03-23T06:04:36.095Z,8.18
2023-03-23T06:04:52.344Z,8.28
2023-03-23T06:05:26.406Z,8.28
2023-03-23T06:05:43.424Z,8.28
2023-03-23T06:06:12.343Z,8.28
2023-03-23T06:06:35.441Z,8.28
2023-03-23T06:07:00.620Z,8.28
2023-03-23T06:07:34.091Z,8.28
2023-03-23T06:08:04.485Z,8.28
2023-03-23T06:08:36.961Z,8.28
2023-03-23T06:09:08.453Z,8.28
2023-03-23T06:09:36.442Z,8.28
2023-03-23T06:09:56.645Z,8.28
2023-03-23T06:10:28.736Z,8.28
2023-03-23T06:11:01.315Z,8.28
2023-03-23T06:11:32.476Z,8.28
2023-03-23T06:12:05.356Z,8.28
2023-03-23T06:12:35.446Z,8.28
2023-03-23T06:13:09.344Z,8.28
2023-03-23T06:13:35.423Z,8.28
2023-03-23T06:13:57.007Z,8.28
2023-03-23T06:14:28.506Z,8.28
2023-03-23T06:15:01.092Z,8.28
2023-03-23T06:15:32.693Z,8.28
2023-03-23T06:16:04.452Z,8.28
2023-03-23T06:16:35.432Z,8.28
2023-03-23T06:17:08.727Z,8.36
2023-03-23T06:17:35.950Z,8.18
2023-03-23T06:17:56.556Z,8.18
2023-03-23T06:18:29.370Z,8.18
2023-03-23T06:19:00.473Z,8.18
2023-03-23T06:19:33.193Z,8.18
2023-03-23T06:20:04.938Z,8.18
2023-03-23T06:20:36.358Z,8.18
2023-03-23T06:21:08.580Z,8.18
2023-03-23T06:21:35.476Z,8.18
2023-03-23T06:21:56.655Z,8.28